createdAt,value
2019-05-21T00:04:44.047Z,33.13
2019-05-21T00:09:48.435Z,35.13
2019-05-21T00:14:52.813Z,34.23
2019-05-21T00:19:57.137Z,31.60
2019-05-21T00:25:01.470Z,28.70
2019-05-21T00:31:00.875Z,35.05
2019-05-21T00:37:01.745Z,34.60
2019-05-21T00:42:05.269Z,29.72
2019-05-21T00:47:11.681Z,28.50
2019-05-21T00:52:16.081Z,30.40
2019-05-21T00:57:21.085Z,33.70
2019-05-21T01:02:25.398Z,31.62
2019-05-21T01:07:29.785Z,34.58
2019-05-21T01:12:34.177Z,35.50
2019-05-21T01:17:38.561Z,35.58
2019-05-21T01:22:42.887Z,30.52
2019-05-21T01:27:47.281Z,33.92
2019-05-21T01:32:51.676Z,24.82
2019-05-21T01:37:56.063Z,32.10
2019-05-21T01:43:03.184Z,30.27
2019-05-21T01:48:06.565Z,31.87
2019-05-21T01:53:10.953Z,29.90
2019-05-21T01:58:15.983Z,29.80
2019-05-21T02:03:23.831Z,32.73
2019-05-21T02:08:27.218Z,34.90
2019-05-21T02:13:31.537Z,31.30
2019-05-21T02:18:35.829Z,26.82
2019-05-21T02:23:40.136Z,26.33
2019-05-21T02:28:44.443Z,27.73
2019-05-21T02:33:48.894Z,29.15
2019-05-21T02:38:53.293Z,32.15
2019-05-21T02:43:57.723Z,30.08
2019-05-21T02:49:02.036Z,24.60
2019-05-21T02:54:06.424Z,23.55
2019-05-21T02:59:12.075Z,22.50
2019-05-21T03:04:16.475Z,21.90
2019-05-21T03:09:20.871Z,20.08
2019-05-21T03:14:25.251Z,19.62
2019-05-21T03:19:29.634Z,20.43
2019-05-21T03:24:35.857Z,18.45
2019-05-21T03:29:40.241Z,22.70
2019-05-21T03:34:44.690Z,18.42
2019-05-21T03:39:48.976Z,23.12
2019-05-21T03:44:59.944Z,26.33
2019-05-21T03:49:59.320Z,25.10
2019-05-21T03:55:03.998Z,28.95
2019-05-21T04:00:12.199Z,29.87
2019-05-21T04:05:21.228Z,30.02
2019-05-21T04:10:25.711Z,30.85
2019-05-21T04:15:30.599Z,27.40
2019-05-21T04:20:34.991Z,27.90
2019-05-21T04:25:39.321Z,27.70
2019-05-21T04:30:43.615Z,27.77
2019-05-21T04:35:51.140Z,24.05
2019-05-21T04:40:55.719Z,27.10
2019-05-21T04:46:00.036Z,23.15
2019-05-21T04:51:04.686Z,20.92
2019-05-21T04:56:09.024Z,19.12
2019-05-21T05:01:15.056Z,18.17
2019-05-21T05:06:19.366Z,21.02
2019-05-21T05:11:23.746Z,23.50
2019-05-21T05:16:28.144Z,20.75
2019-05-21T05:21:32.474Z,22.40
2019-05-21T05:26:36.773Z,23.57
2019-05-21T05:31:41.095Z,23.87
2019-05-21T05:36:45.491Z,28.45
2019-05-21T05:41:49.878Z,24.07
2019-05-21T05:46:54.258Z,23.75
2019-05-21T05:51:58.566Z,22.42
2019-05-21T05:57:02.957Z,23.83
2019-05-21T06:02:08.884Z,22.80
2019-05-21T06:07:13.205Z,25.10
2019-05-21T06:12:17.584Z,31.30
2019-05-21T06:17:21.979Z,28.23
2019-05-21T06:22:26.367Z,28.65
2019-05-21T06:27:30.691Z,30.43
2019-05-21T06:32:35.044Z,27.45
2019-05-21T06:37:39.385Z,28.73
2019-05-21T06:42:43.779Z,32.55
2019-05-21T06:47:48.173Z,28.98
2019-05-21T06:52:52.491Z,27.42
2019-05-21T06:57:56.875Z,25.30
2019-05-21T07:03:03.332Z,20.45
2019-05-21T07:08:07.714Z,22.10
2019-05-21T07:13:12.108Z,24.92
2019-05-21T07:18:16.724Z,32.50
2019-05-21T07:23:21.101Z,28.47
2019-05-21T07:28:25.496Z,27.82
2019-05-21T07:33:29.794Z,28.55
2019-05-21T07:38:50.216Z,28.40
2019-05-21T07:43:40.257Z,25.17
2019-05-21T07:48:45.186Z,29.40
2019-05-21T07:53:49.494Z,31.20
2019-05-21T07:58:53.874Z,31.82
2019-05-21T08:03:59.404Z,28.05
2019-05-21T08:09:13.295Z,29.80
2019-05-21T08:14:11.932Z,21.00
2019-05-21T08:19:16.243Z,26.07
2019-05-21T08:24:20.737Z,25.95
2019-05-21T08:29:25.378Z,26.75
2019-05-21T08:34:29.928Z,17.50
2019-05-21T08:39:34.387Z,19.67
2019-05-21T08:44:38.775Z,21.93
2019-05-21T08:49:44.306Z,23.62
2019-05-21T08:54:56.061Z,28.67
2019-05-21T08:59:58.628Z,26.95
2019-05-21T09:05:06.502Z,24.90
2019-05-21T09:10:11.959Z,24.43
2019-05-21T09:15:17.901Z,25.82
2019-05-21T09:20:22.583Z,27.65
2019-05-21T09:25:26.962Z,26.97
2019-05-21T09:30:31.371Z,27.62
2019-05-21T09:35:35.769Z,19.20
2019-05-21T09:40:40.402Z,26.82
2019-05-21T09:45:45.299Z,23.22
2019-05-21T09:50:49.606Z,29.27
2019-05-21T09:55:54.225Z,21.27
2019-05-21T10:01:12.474Z,26.00
2019-05-21T10:06:17.209Z,26.57
2019-05-21T10:11:21.599Z,19.65
2019-05-21T10:16:25.977Z,19.70
2019-05-21T10:21:30.640Z,20.62
2019-05-21T10:26:35.660Z,19.15
2019-05-21T10:31:40.059Z,19.77
2019-05-21T10:36:44.371Z,17.90
2019-05-21T10:41:48.905Z,17.77
2019-05-21T10:46:53.382Z,17.37
2019-05-21T10:51:57.881Z,17.37
2019-05-21T10:57:02.272Z,15.23
2019-05-21T11:02:17.596Z,16.45
2019-05-21T11:07:23.693Z,19.90
2019-05-21T11:12:28.312Z,16.57
2019-05-21T11:17:46.946Z,18.65
2019-05-21T11:22:39.021Z,14.10
2019-05-21T11:27:43.482Z,15.95
2019-05-21T11:32:48.164Z,16.12
2019-05-21T11:37:52.541Z,13.22
2019-05-21T11:42:56.922Z,14.25
2019-05-21T11:48:01.316Z,16.55
2019-05-21T11:53:05.732Z,15.63
2019-05-21T11:58:10.087Z,17.65
2019-05-21T12:03:14.735Z,16.62
2019-05-21T12:08:19.041Z,16.48
2019-05-21T12:13:23.615Z,15.35
2019-05-21T12:18:27.987Z,17.40
2019-05-21T12:23:32.401Z,21.40
2019-05-21T12:28:36.773Z,19.67
2019-05-21T12:33:41.234Z,15.10
2019-05-21T12:38:45.617Z,23.55
2019-05-21T12:43:50.007Z,14.53
2019-05-21T12:48:54.312Z,10.60
2019-05-21T12:53:58.623Z,16.97
2019-05-21T12:59:03.163Z,11.18
2019-05-21T13:04:07.754Z,11.80
2019-05-21T13:09:12.198Z,9.93
2019-05-21T13:14:18.890Z,13.62
2019-05-21T13:19:22.871Z,11.03
2019-05-21T13:24:27.286Z,9.18
2019-05-21T13:29:31.607Z,15.10
2019-05-21T13:34:36.210Z,17.00
2019-05-21T13:39:49.506Z,12.00
2019-05-21T13:44:46.578Z,12.95
2019-05-21T13:49:50.969Z,11.08
2019-05-21T13:54:55.538Z,13.00
2019-05-21T14:00:00.225Z,11.28
2019-05-21T14:05:05.644Z,11.22
2019-05-21T14:10:15.864Z,10.65
2019-05-21T14:15:16.562Z,8.28
2019-05-21T14:20:21.078Z,14.45
2019-05-21T14:25:25.455Z,9.65
2019-05-21T14:30:29.781Z,10.20
2019-05-21T14:35:34.170Z,9.33
2019-05-21T14:40:38.548Z,6.25
2019-05-21T14:45:42.849Z,8.05
2019-05-21T14:50:47.253Z,10.63
2019-05-21T14:55:51.654Z,9.08
2019-05-21T15:00:56.168Z,18.45
2019-05-21T15:06:00.553Z,12.30
2019-05-21T15:11:04.877Z,10.65
2019-05-21T15:16:09.552Z,12.93
2019-05-21T15:21:21.520Z,11.55
2019-05-21T15:26:25.896Z,11.03
2019-05-21T15:31:30.520Z,10.38
2019-05-21T15:36:34.906Z,11.30
2019-05-21T15:41:39.286Z,9.68
2019-05-21T15:46:49.510Z,10.75
2019-05-21T15:51:49.714Z,12.00
2019-05-21T15:56:54.110Z,12.93
2019-05-21T16:01:58.510Z,14.40
2019-05-21T16:07:02.953Z,13.95
2019-05-21T16:12:07.346Z,14.30
2019-05-21T16:17:11.654Z,18.42
2019-05-21T16:22:16.240Z,17.20
2019-05-21T16:27:20.546Z,14.65
2019-05-21T16:32:25.126Z,15.05
2019-05-21T16:37:29.511Z,22.10
2019-05-21T16:42:33.897Z,19.35
2019-05-21T16:47:45.959Z,20.05
2019-05-21T16:52:44.688Z,18.10
2019-05-21T16:57:49.077Z,19.52
2019-05-21T17:02:53.460Z,19.87
2019-05-21T17:07:57.844Z,19.17
2019-05-21T17:13:02.310Z,16.42
2019-05-21T17:18:06.683Z,23.92
2019-05-21T17:23:11.070Z,13.25
2019-05-21T17:28:15.482Z,16.50
2019-05-21T17:33:19.855Z,17.17
2019-05-21T17:38:24.753Z,16.97
2019-05-21T17:43:29.201Z,16.95
2019-05-21T17:48:33.516Z,19.23
2019-05-21T17:53:37.897Z,18.95
2019-05-21T17:58:42.297Z,14.85
2019-05-21T18:03:46.607Z,13.28
2019-05-21T18:08:51.583Z,12.95
2019-05-21T18:13:55.978Z,14.68
2019-05-21T18:19:00.977Z,13.98
2019-05-21T18:24:05.749Z,16.12
2019-05-21T18:29:10.210Z,14.18
2019-05-21T18:34:14.529Z,16.30
2019-05-21T18:39:19.743Z,15.30
2019-05-21T18:44:24.239Z,16.00
2019-05-21T18:49:28.576Z,16.62
2019-05-21T18:54:34.340Z,16.67
2019-05-21T18:59:39.400Z,18.85
2019-05-21T19:04:43.795Z,18.42
2019-05-21T19:09:48.311Z,18.98
2019-05-21T19:14:52.703Z,15.80
2019-05-21T19:19:57.089Z,17.65
2019-05-21T19:25:01.506Z,12.30
2019-05-21T19:30:10.572Z,11.88
2019-05-21T19:35:14.941Z,9.20
2019-05-21T19:40:19.326Z,10.53
2019-05-21T19:45:23.696Z,12.95
2019-05-21T19:50:28.191Z,14.30
2019-05-21T19:55:34.042Z,14.63
2019-05-21T20:00:40.105Z,14.45
2019-05-21T20:05:46.353Z,18.15
2019-05-21T20:10:53.654Z,14.23
2019-05-21T20:15:58.951Z,11.53
2019-05-21T20:21:06.599Z,11.80
2019-05-21T20:26:15.628Z,12.93
2019-05-21T20:31:20.317Z,11.63
2019-05-21T20:36:25.022Z,10.88
2019-05-21T20:41:30.824Z,11.80
2019-05-21T20:46:35.717Z,11.43
2019-05-21T20:51:43.324Z,11.73
2019-05-21T20:56:47.594Z,12.68
2019-05-21T21:01:52.265Z,12.82
2019-05-21T21:06:57.018Z,13.00
2019-05-21T21:12:01.416Z,15.53
2019-05-21T21:17:10.436Z,14.40
2019-05-21T21:22:14.917Z,11.10
2019-05-21T21:27:19.737Z,11.55
2019-05-21T21:32:24.056Z,13.83
2019-05-21T21:37:28.457Z,13.95
2019-05-21T21:42:33.128Z,11.95
2019-05-21T21:47:37.915Z,10.72
2019-05-21T21:52:42.373Z,11.53
2019-05-21T21:57:46.763Z,12.33
2019-05-21T22:02:51.144Z,13.10
2019-05-21T22:07:55.621Z,13.32
2019-05-21T22:13:00.248Z,14.83
2019-05-21T22:18:05.296Z,14.05
2019-05-21T22:23:09.881Z,12.63
2019-05-21T22:28:14.416Z,13.40
2019-05-21T22:33:19.512Z,18.48
2019-05-21T22:38:32.298Z,16.40
2019-05-21T22:43:35.991Z,19.32
2019-05-21T22:48:40.299Z,19.95
2019-05-21T22:53:44.830Z,21.70
2019-05-21T22:58:49.149Z,22.40
2019-05-21T23:03:55.585Z,19.00
2019-05-21T23:08:59.890Z,19.57
2019-05-21T23:14:04.933Z,22.13
2019-05-21T23:19:11.341Z,17.50
2019-05-21T23:24:18.356Z,19.97
2019-05-21T23:29:24.124Z,19.98
2019-05-21T23:34:28.955Z,19.90
2019-05-21T23:39:34.843Z,21.00
2019-05-21T23:44:39.394Z,20.70
2019-05-21T23:49:44.031Z,23.30
2019-05-21T23:54:48.348Z,22.27
2019-05-21T23:59:53.171Z,20.70
